createdAt,value
2023-02-23T00:00:32.098Z,-5.55
2023-02-23T00:03:01.740Z,-5.58
2023-02-23T00:05:31.811Z,-5.61
2023-02-23T00:07:59.883Z,-5.64
2023-02-23T00:10:31.584Z,-5.66
2023-02-23T00:13:00.144Z,-5.69
2023-02-23T00:15:31.667Z,-5.72
2023-02-23T00:17:59.840Z,-5.75
2023-02-23T00:20:28.164Z,-5.76
2023-02-23T00:22:58.341Z,-5.79
2023-02-23T00:25:26.589Z,-5.81
2023-02-23T00:27:56.065Z,-5.83
2023-02-23T00:30:24.734Z,-5.86
2023-02-23T00:32:53.291Z,-5.79
2023-02-23T00:35:21.442Z,-5.63
2023-02-23T00:37:53.222Z,-5.52
2023-02-23T00:40:22.492Z,-5.49
2023-02-23T00:42:52.444Z,-5.48
2023-02-23T00:45:21.439Z,-5.46
2023-02-23T00:47:49.810Z,-5.43
2023-02-23T00:50:18.334Z,-5.42
2023-02-23T00:52:50.163Z,-5.43
2023-02-23T00:55:19.063Z,-5.44
2023-02-23T00:57:47.381Z,-5.47
2023-02-23T01:00:22.460Z,-5.50
2023-02-23T01:02:51.328Z,-5.54
2023-02-23T01:05:20.441Z,-5.59
2023-02-23T01:07:52.094Z,-5.63
2023-02-23T01:10:20.365Z,-5.69
2023-02-23T01:12:55.712Z,-5.74
2023-02-23T01:15:24.430Z,-5.78
2023-02-23T01:17:52.401Z,-5.81
2023-02-23T01:20:21.496Z,-5.87
2023-02-23T01:22:50.094Z,-5.91
2023-02-23T01:25:18.425Z,-5.94
2023-02-23T01:27:46.509Z,-5.98
2023-02-23T01:30:15.053Z,-5.99
2023-02-23T01:32:45.904Z,-5.89
2023-02-23T01:35:13.883Z,-5.77
2023-02-23T01:37:43.538Z,-5.73
2023-02-23T01:40:15.753Z,-5.77
2023-02-23T01:42:49.177Z,-5.82
2023-02-23T01:45:17.572Z,-5.85
2023-02-23T01:47:46.115Z,-5.88
2023-02-23T01:50:16.460Z,-5.92
2023-02-23T01:52:46.044Z,-5.99
2023-02-23T01:55:14.157Z,-6.07
2023-02-23T01:57:42.498Z,-6.16
2023-02-23T02:00:15.243Z,-6.24
2023-02-23T02:02:43.558Z,-6.31
2023-02-23T02:05:14.227Z,-6.37
2023-02-23T02:07:45.346Z,-6.40
2023-02-23T02:10:17.608Z,-6.37
2023-02-23T02:12:52.142Z,-6.24
2023-02-23T02:15:22.638Z,-6.15
2023-02-23T02:18:25.049Z,-6.15
2023-02-23T02:21:41.748Z,-6.22
2023-02-23T02:24:13.208Z,-6.28
2023-02-23T02:26:48.967Z,-6.30
2023-02-23T02:29:51.531Z,-6.31
2023-02-23T02:32:47.449Z,-6.35
2023-02-23T02:35:39.728Z,-6.39
2023-02-23T02:38:23.883Z,-6.45
2023-02-23T02:41:04.094Z,-6.52
2023-02-23T02:43:47.326Z,-6.57
2023-02-23T02:46:15.572Z,-6.56
2023-02-23T02:48:57.917Z,-6.44
2023-02-23T02:51:28.846Z,-6.36
2023-02-23T02:54:25.284Z,-6.37
2023-02-23T02:56:58.470Z,-6.40
2023-02-23T02:59:46.416Z,-6.40
2023-02-23T03:02:37.998Z,-6.42
2023-02-23T03:05:35.139Z,-6.50
2023-02-23T03:08:31.523Z,-6.59
2023-02-23T03:11:29.751Z,-6.72
2023-02-23T03:14:32.834Z,-6.84
2023-02-23T03:17:55.346Z,-6.86
2023-02-23T03:21:09.290Z,-6.69
2023-02-23T03:24:21.759Z,-6.63
2023-02-23T03:27:12.400Z,-6.66
2023-02-23T03:30:20.256Z,-6.67
2023-02-23T03:33:11.236Z,-6.69
2023-02-23T03:36:32.332Z,-6.76
2023-02-23T03:39:42.584Z,-6.82
2023-02-23T03:42:33.804Z,-6.88
2023-02-23T03:45:26.601Z,-6.96
2023-02-23T03:48:14.481Z,-6.93
2023-02-23T03:51:27.915Z,-6.76
2023-02-23T03:54:28.187Z,-6.73
2023-02-23T03:57:15.773Z,-6.77
2023-02-23T04:00:11.474Z,-6.82
2023-02-23T04:03:03.218Z,-6.84
2023-02-23T04:05:50.271Z,-6.90
2023-02-23T04:08:37.643Z,-6.99
2023-02-23T04:11:38.690Z,-7.08
2023-02-23T04:14:10.786Z,-7.16
2023-02-23T04:16:40.097Z,-7.11
2023-02-23T04:19:08.358Z,-6.98
2023-02-23T04:21:36.526Z,-6.89
2023-02-23T04:24:05.252Z,-6.88
2023-02-23T04:26:33.318Z,-6.91
2023-02-23T04:29:01.626Z,-6.93
2023-02-23T04:31:30.623Z,-6.95
2023-02-23T04:33:59.255Z,-6.97
2023-02-23T04:36:27.962Z,-7.00
2023-02-23T04:38:58.015Z,-7.04
2023-02-23T04:41:27.037Z,-7.10
2023-02-23T04:43:55.233Z,-7.15
2023-02-23T04:46:23.946Z,-7.10
2023-02-23T04:48:53.171Z,-7.02
2023-02-23T04:51:22.089Z,-6.96
2023-02-23T04:53:50.314Z,-6.96
2023-02-23T04:56:18.435Z,-6.99
2023-02-23T04:58:46.634Z,-7.00
2023-02-23T05:01:15.484Z,-7.01
2023-02-23T05:03:44.047Z,-7.04
2023-02-23T05:06:13.075Z,-7.08
2023-02-23T05:08:41.449Z,-7.14
2023-02-23T05:11:11.980Z,-7.19
2023-02-23T05:13:42.190Z,-7.23
2023-02-23T05:16:10.525Z,-7.16
2023-02-23T05:18:38.763Z,-7.04
2023-02-23T05:21:13.278Z,-6.95
2023-02-23T05:23:43.705Z,-6.95
2023-02-23T05:26:12.837Z,-6.92
2023-02-23T05:28:42.915Z,-6.88
2023-02-23T05:31:11.690Z,-6.87
2023-02-23T05:33:44.130Z,-6.87
2023-02-23T05:36:14.102Z,-6.88
2023-02-23T05:38:47.026Z,-6.87
2023-02-23T05:41:35.132Z,-6.87
2023-02-23T05:44:03.572Z,-6.90
2023-02-23T05:46:32.113Z,-6.89
2023-02-23T05:49:04.567Z,-6.77
2023-02-23T05:51:34.269Z,-6.60
2023-02-23T05:54:02.345Z,-6.45
2023-02-23T05:56:31.173Z,-6.39
2023-02-23T05:58:59.501Z,-6.35
2023-02-23T06:01:32.603Z,-6.28
2023-02-23T06:04:06.350Z,-6.23
2023-02-23T06:06:36.419Z,-6.20
2023-02-23T06:09:11.166Z,-6.14
2023-02-23T06:11:41.089Z,-6.11
2023-02-23T06:14:09.440Z,-6.09
2023-02-23T06:16:38.378Z,-6.10
2023-02-23T06:19:09.504Z,-6.09
2023-02-23T06:21:37.661Z,-6.05
2023-02-23T06:24:07.313Z,-6.04
2023-02-23T06:26:35.660Z,-6.02
2023-02-23T06:29:03.877Z,-5.99
2023-02-23T06:31:33.159Z,-5.97
2023-02-23T06:34:04.010Z,-5.94
2023-02-23T06:36:32.650Z,-5.88
2023-02-23T06:39:05.988Z,-5.80
2023-02-23T06:41:36.063Z,-5.73
2023-02-23T06:44:04.547Z,-5.67
2023-02-23T06:46:33.867Z,-5.65
2023-02-23T06:49:03.947Z,-5.61
2023-02-23T06:51:33.218Z,-5.55
2023-02-23T06:54:03.902Z,-5.47
2023-02-23T06:56:34.660Z,-5.41
2023-02-23T06:59:03.293Z,-5.34
2023-02-23T07:01:31.856Z,-5.27
2023-02-23T07:05:38.528Z,-5.11
2023-02-23T07:08:07.215Z,-5.06
2023-02-23T07:10:35.491Z,-5.00
2023-02-23T07:13:08.600Z,-4.95
2023-02-23T07:15:40.588Z,-4.87
2023-02-23T07:18:09.447Z,-4.79
2023-02-23T07:20:38.295Z,-4.73
2023-02-23T07:23:08.053Z,-4.66
2023-02-23T07:25:41.900Z,-4.60
2023-02-23T07:28:10.440Z,-4.54
2023-02-23T07:30:39.361Z,-4.48
2023-02-23T07:33:10.670Z,-4.46
2023-02-23T07:35:39.477Z,-4.40
2023-02-23T07:38:10.229Z,-4.33
2023-02-23T07:40:40.034Z,-4.30
2023-02-23T07:43:13.314Z,-4.24
2023-02-23T07:45:42.108Z,-4.18
2023-02-23T07:48:11.161Z,-4.10
2023-02-23T07:50:42.501Z,-4.05
2023-02-23T07:53:13.294Z,-4.02
2023-02-23T07:55:43.371Z,-4.04
2023-02-23T07:58:16.148Z,-4.01
2023-02-23T08:00:46.162Z,-3.96
2023-02-23T08:03:14.686Z,-3.89
2023-02-23T08:05:44.988Z,-3.82
2023-02-23T08:08:23.520Z,-3.72
2023-02-23T08:11:21.120Z,-3.64
2023-02-23T08:13:51.361Z,-3.59
2023-02-23T08:16:19.944Z,-3.51
2023-02-23T08:18:49.197Z,-3.46
2023-02-23T08:21:17.617Z,-3.40
2023-02-23T08:23:46.179Z,-3.33
2023-02-23T08:26:16.246Z,-3.25
2023-02-23T08:28:46.910Z,-3.23
2023-02-23T08:31:18.937Z,-3.14
2023-02-23T08:33:47.551Z,-3.05
2023-02-23T08:36:16.611Z,-2.95
2023-02-23T08:38:44.711Z,-2.85
2023-02-23T08:41:13.370Z,-2.72
2023-02-23T08:43:41.920Z,-2.56
2023-02-23T08:46:10.458Z,-2.44
2023-02-23T08:48:40.657Z,-2.32
2023-02-23T08:51:10.119Z,-2.19
2023-02-23T08:53:39.119Z,-2.09
2023-02-23T08:56:08.088Z,-1.97
2023-02-23T08:58:37.512Z,-1.81
2023-02-23T09:01:08.398Z,-1.64
2023-02-23T09:03:40.208Z,-1.49
2023-02-23T09:06:12.130Z,-1.29
2023-02-23T09:08:43.227Z,-1.08
2023-02-23T09:11:13.655Z,-0.87
2023-02-23T09:13:43.181Z,-0.52
2023-02-23T09:16:11.831Z,-0.19
2023-02-23T09:18:39.895Z,0.13
2023-02-23T09:21:10.911Z,0.47
2023-02-23T09:23:39.549Z,0.81
2023-02-23T09:26:12.210Z,1.19
2023-02-23T09:28:42.538Z,1.62
2023-02-23T09:31:16.020Z,2.07
2023-02-23T09:33:44.428Z,2.68
2023-02-23T09:36:16.606Z,3.36
2023-02-23T09:38:46.297Z,3.95
2023-02-23T09:41:40.509Z,4.59
2023-02-23T09:44:12.919Z,5.31
2023-02-23T09:46:54.449Z,5.60
2023-02-23T09:49:25.443Z,6.27
2023-02-23T09:51:57.834Z,7.05
2023-02-23T09:54:29.718Z,7.75
2023-02-23T09:56:58.576Z,8.17
2023-02-23T09:59:28.962Z,8.52
2023-02-23T10:02:21.714Z,8.66
2023-02-23T10:04:56.980Z,8.52
2023-02-23T10:07:46.478Z,8.86
2023-02-23T10:10:24.403Z,9.57
2023-02-23T10:13:12.507Z,10.22
2023-02-23T10:16:08.119Z,10.61
2023-02-23T10:18:56.815Z,10.84
2023-02-23T10:21:35.858Z,10.58
2023-02-23T10:24:25.791Z,10.61
2023-02-23T10:27:04.748Z,11.25
2023-02-23T10:29:34.827Z,12.03
2023-02-23T10:32:19.358Z,12.73
2023-02-23T10:34:53.277Z,13.18
2023-02-23T10:37:21.835Z,13.51
2023-02-23T10:39:52.108Z,14.00
2023-02-23T10:42:23.352Z,14.30
2023-02-23T10:44:53.604Z,14.12
2023-02-23T10:47:25.348Z,14.02
2023-02-23T10:49:58.838Z,14.04
2023-02-23T10:52:41.586Z,13.99
2023-02-23T10:55:28.714Z,14.28
2023-02-23T10:58:09.748Z,14.69
2023-02-23T11:00:40.501Z,15.22
2023-02-23T11:03:48.282Z,15.61
2023-02-23T11:06:35.195Z,15.87
2023-02-23T11:09:43.413Z,15.73
2023-02-23T11:12:21.920Z,16.23
2023-02-23T11:14:53.073Z,16.73
2023-02-23T11:17:29.869Z,17.13
2023-02-23T11:20:24.669Z,17.51
2023-02-23T11:22:53.797Z,17.86
2023-02-23T11:25:31.208Z,17.95
2023-02-23T11:27:59.438Z,18.09
2023-02-23T11:30:37.622Z,18.22
2023-02-23T11:33:11.780Z,18.40
2023-02-23T11:35:39.950Z,18.59
2023-02-23T11:38:24.373Z,18.86
2023-02-23T11:41:07.443Z,18.58
2023-02-23T11:43:40.956Z,18.21
2023-02-23T11:46:23.158Z,18.01
2023-02-23T11:49:01.158Z,17.92
2023-02-23T11:51:33.232Z,18.07
2023-02-23T11:54:02.267Z,18.31
2023-02-23T11:56:32.470Z,18.23
2023-02-23T11:59:08.450Z,18.28
2023-02-23T12:01:46.888Z,18.30
2023-02-23T12:04:31.401Z,18.27
2023-02-23T12:07:18.347Z,18.12
2023-02-23T12:09:46.928Z,18.15
2023-02-23T12:12:18.457Z,18.46
2023-02-23T12:15:09.570Z,18.98
2023-02-23T12:17:43.862Z,19.37
2023-02-23T12:20:29.262Z,19.63
2023-02-23T12:23:10.344Z,19.94
2023-02-23T12:26:13.975Z,20.13
2023-02-23T12:29:06.302Z,20.38
2023-02-23T12:31:34.930Z,20.64
2023-02-23T12:34:09.234Z,20.72
2023-02-23T12:36:51.332Z,20.71
2023-02-23T12:39:27.557Z,20.68
2023-02-23T12:42:00.131Z,20.51
2023-02-23T12:44:47.818Z,20.39
2023-02-23T12:47:39.438Z,20.34
2023-02-23T12:50:20.781Z,20.53
2023-02-23T12:53:13.097Z,20.81
2023-02-23T12:56:19.153Z,20.38
2023-02-23T12:59:01.180Z,19.65
2023-02-23T13:01:43.816Z,19.01
2023-02-23T13:04:46.141Z,19.00
2023-02-23T13:07:45.074Z,19.28
2023-02-23T13:10:44.216Z,19.50
2023-02-23T13:13:12.844Z,19.64
2023-02-23T13:15:55.341Z,19.61
2023-02-23T13:18:34.464Z,19.53
2023-02-23T13:21:15.300Z,19.57
2023-02-23T13:23:59.982Z,19.41
2023-02-23T13:26:39.506Z,19.37
2023-02-23T13:29:20.468Z,19.37
2023-02-23T13:31:48.702Z,19.17
2023-02-23T13:34:52.623Z,18.51
2023-02-23T13:37:35.040Z,18.21
2023-02-23T13:40:24.283Z,18.16
2023-02-23T13:43:10.210Z,18.04
2023-02-23T13:46:14.809Z,17.98
2023-02-23T13:48:57.264Z,17.16
2023-02-23T13:51:45.832Z,15.84
2023-02-23T13:54:16.631Z,14.29
2023-02-23T13:56:51.211Z,12.96
2023-02-23T13:59:23.986Z,11.75
2023-02-23T14:01:55.831Z,10.70
2023-02-23T14:04:29.290Z,9.78
2023-02-23T14:07:09.592Z,8.94
2023-02-23T14:09:47.622Z,8.09
2023-02-23T14:12:33.109Z,7.38
2023-02-23T14:15:29.055Z,6.70
2023-02-23T14:18:05.033Z,6.12
2023-02-23T14:20:40.264Z,5.51
2023-02-23T14:23:29.096Z,5.02
2023-02-23T14:26:15.803Z,4.60
2023-02-23T14:28:46.825Z,4.15
2023-02-23T14:31:16.136Z,3.81
2023-02-23T14:33:48.625Z,3.50
2023-02-23T14:36:24.107Z,3.13
2023-02-23T14:39:01.204Z,2.74
2023-02-23T14:41:47.112Z,2.44
2023-02-23T14:44:28.420Z,2.20
2023-02-23T14:47:03.412Z,2.00
2023-02-23T14:49:35.129Z,1.84
2023-02-23T14:52:08.423Z,1.68
2023-02-23T14:54:39.865Z,1.55
2023-02-23T14:57:20.153Z,1.43
2023-02-23T15:00:15.585Z,1.27
2023-02-23T15:03:16.203Z,1.14
2023-02-23T15:05:46.325Z,1.00
2023-02-23T15:08:23.321Z,0.80
2023-02-23T15:10:59.877Z,0.56
2023-02-23T15:13:30.402Z,0.27
2023-02-23T15:16:01.745Z,-0.03
2023-02-23T15:18:32.635Z,-0.28
2023-02-23T15:21:06.540Z,-0.48
2023-02-23T15:23:39.300Z,-0.65
2023-02-23T15:26:28.183Z,-0.75
2023-02-23T15:28:57.123Z,-0.82
2023-02-23T15:31:30.276Z,-0.86
2023-02-23T15:33:58.500Z,-0.91
2023-02-23T15:36:34.715Z,-0.95
2023-02-23T15:39:05.455Z,-1.01
2023-02-23T15:41:37.414Z,-1.07
2023-02-23T15:44:21.761Z,-1.15
2023-02-23T15:46:55.801Z,-1.24
2023-02-23T15:49:32.704Z,-1.29
2023-02-23T15:52:19.353Z,-1.32
2023-02-23T15:55:00.679Z,-1.35
2023-02-23T15:57:35.666Z,-1.40
2023-02-23T16:00:11.006Z,-1.44
2023-02-23T16:02:39.439Z,-1.48
2023-02-23T16:05:23.540Z,-1.51
2023-02-23T16:08:06.394Z,-1.53
2023-02-23T16:10:43.570Z,-1.56
2023-02-23T16:13:13.865Z,-1.60
2023-02-23T16:15:46.205Z,-1.63
2023-02-23T16:18:19.399Z,-1.66
2023-02-23T16:20:56.777Z,-1.70
2023-02-23T16:23:37.495Z,-1.74
2023-02-23T16:26:29.838Z,-1.78
2023-02-23T16:29:02.317Z,-1.81
2023-02-23T16:31:47.704Z,-1.82
2023-02-23T16:34:45.542Z,-1.85
2023-02-23T16:37:27.133Z,-1.89
2023-02-23T16:39:56.121Z,-1.93
2023-02-23T16:42:32.064Z,-1.96
2023-02-23T16:45:05.551Z,-1.99
2023-02-23T16:47:42.802Z,-2.00
2023-02-23T16:50:21.155Z,-2.01
2023-02-23T16:52:53.448Z,-2.05
2023-02-23T16:55:26.843Z,-2.09
2023-02-23T16:58:00.762Z,-2.13
2023-02-23T17:00:34.757Z,-2.18
2023-02-23T17:03:06.649Z,-2.22
2023-02-23T17:05:35.980Z,-2.25
2023-02-23T17:08:05.500Z,-2.28
2023-02-23T17:10:34.903Z,-2.31
2023-02-23T17:13:06.288Z,-2.35
2023-02-23T17:15:41.239Z,-2.41
2023-02-23T17:18:11.962Z,-2.46
2023-02-23T17:20:41.213Z,-2.51
2023-02-23T17:23:11.484Z,-2.55
2023-02-23T17:25:40.030Z,-2.59
2023-02-23T17:28:08.867Z,-2.62
2023-02-23T17:30:40.131Z,-2.64
2023-02-23T17:33:08.852Z,-2.66
2023-02-23T17:35:37.564Z,-2.67
2023-02-23T17:38:07.400Z,-2.71
2023-02-23T17:40:38.252Z,-2.75
2023-02-23T17:43:09.928Z,-2.78
2023-02-23T17:45:40.425Z,-2.80
2023-02-23T17:48:08.801Z,-2.82
2023-02-23T17:50:38.514Z,-2.86
2023-02-23T17:53:07.393Z,-2.88
2023-02-23T17:55:38.440Z,-2.90
2023-02-23T17:58:08.807Z,-2.93
2023-02-23T18:00:43.131Z,-2.96
2023-02-23T18:03:12.828Z,-2.98
2023-02-23T18:05:40.905Z,-3.00
2023-02-23T18:08:26.505Z,-3.01
2023-02-23T18:10:56.280Z,-3.01
2023-02-23T18:13:26.084Z,-3.00
2023-02-23T18:16:00.268Z,-2.99
2023-02-23T18:18:28.926Z,-2.99
2023-02-23T18:20:59.809Z,-2.99
2023-02-23T18:23:33.548Z,-3.01
2023-02-23T18:26:11.552Z,-3.03
2023-02-23T18:28:44.706Z,-3.05
2023-02-23T18:31:18.962Z,-3.07
2023-02-23T18:33:50.246Z,-3.07
2023-02-23T18:36:39.881Z,-3.07
2023-02-23T18:39:13.269Z,-3.06
2023-02-23T18:41:49.972Z,-3.07
2023-02-23T18:44:18.511Z,-3.08
2023-02-23T18:46:49.213Z,-3.07
2023-02-23T18:49:19.840Z,-3.07
2023-02-23T18:51:50.508Z,-3.05
2023-02-23T18:54:20.811Z,-3.05
2023-02-23T18:56:49.540Z,-3.03
2023-02-23T18:59:18.371Z,-3.08
2023-02-23T19:01:50.971Z,-3.00
2023-02-23T19:04:20.353Z,-2.99
2023-02-23T19:06:49.576Z,-2.99
2023-02-23T19:09:21.587Z,-3.00
2023-02-23T19:11:51.405Z,-2.99
2023-02-23T19:14:32.875Z,-2.97
2023-02-23T19:17:11.178Z,-2.97
2023-02-23T19:19:39.495Z,-2.97
2023-02-23T19:23:34.834Z,-2.96
2023-02-23T19:26:03.467Z,-2.99
2023-02-23T19:28:32.729Z,-3.01
2023-02-23T19:31:05.498Z,-3.04
2023-02-23T19:33:35.454Z,-3.07
2023-02-23T19:36:08.460Z,-3.12
2023-02-23T19:38:43.404Z,-3.15
2023-02-23T19:41:14.153Z,-3.17
2023-02-23T19:43:42.285Z,-3.17
2023-02-23T19:46:13.194Z,-3.19
2023-02-23T19:48:42.109Z,-3.21
2023-02-23T19:51:11.800Z,-3.22
2023-02-23T19:53:40.048Z,-3.24
2023-02-23T19:56:12.788Z,-3.26
2023-02-23T19:58:46.606Z,-3.28
2023-02-23T20:01:18.198Z,-3.30
2023-02-23T20:03:49.591Z,-3.32
2023-02-23T20:06:17.931Z,-3.32
2023-02-23T20:08:48.351Z,-3.33
2023-02-23T20:11:16.573Z,-3.34
2023-02-23T20:13:44.679Z,-3.35
2023-02-23T20:16:14.195Z,-3.35
2023-02-23T20:18:46.069Z,-3.34
2023-02-23T20:21:19.792Z,-3.34
2023-02-23T20:23:48.081Z,-3.34
2023-02-23T20:26:26.214Z,-3.36
2023-02-23T20:28:54.721Z,-3.37
2023-02-23T20:31:35.189Z,-3.37
2023-02-23T20:34:26.880Z,-3.35
2023-02-23T20:36:55.861Z,-3.33
2023-02-23T20:39:24.627Z,-3.31
2023-02-23T20:41:55.080Z,-3.31
2023-02-23T20:44:23.683Z,-3.31
2023-02-23T20:46:53.135Z,-3.31
2023-02-23T20:49:22.827Z,-3.31
2023-02-23T20:51:50.928Z,-3.31
2023-02-23T20:54:19.484Z,-3.32
2023-02-23T20:57:07.603Z,-3.32
2023-02-23T20:59:36.960Z,-3.31
2023-02-23T21:02:05.610Z,-3.33
2023-02-23T21:04:38.167Z,-3.35
2023-02-23T21:07:06.910Z,-3.36
2023-02-23T21:09:34.856Z,-3.36
2023-02-23T21:12:03.830Z,-3.36
2023-02-23T21:14:42.691Z,-3.37
2023-02-23T21:17:10.810Z,-3.36
2023-02-23T21:19:39.183Z,-3.34
2023-02-23T21:22:07.291Z,-3.35
2023-02-23T21:24:38.256Z,-3.36
2023-02-23T21:27:06.606Z,-3.37
2023-02-23T21:29:34.639Z,-3.35
2023-02-23T21:32:02.845Z,-3.36
2023-02-23T21:34:31.139Z,-3.37
2023-02-23T21:37:09.499Z,-3.38
2023-02-23T21:39:38.148Z,-3.40
2023-02-23T21:42:07.564Z,-3.41
2023-02-23T21:44:36.213Z,-3.43
2023-02-23T21:47:07.248Z,-3.44
2023-02-23T21:49:35.978Z,-3.45
2023-02-23T21:52:04.487Z,-3.47
2023-02-23T21:54:36.671Z,-3.49
2023-02-23T21:57:04.684Z,-3.51
2023-02-23T21:59:34.977Z,-3.49
2023-02-23T22:02:02.946Z,-3.49
2023-02-23T22:04:31.502Z,-3.50
2023-02-23T22:06:59.668Z,-3.51
2023-02-23T22:09:27.774Z,-3.51
2023-02-23T22:11:56.082Z,-3.53
2023-02-23T22:14:27.063Z,-3.53
2023-02-23T22:16:55.223Z,-3.53
2023-02-23T22:19:23.644Z,-3.52
2023-02-23T22:21:51.944Z,-3.51
2023-02-23T22:24:19.979Z,-3.50
2023-02-23T22:26:54.561Z,-3.49
2023-02-23T22:29:23.714Z,-3.49
2023-02-23T22:31:51.888Z,-3.49
2023-02-23T22:34:20.308Z,-3.49
2023-02-23T22:36:48.623Z,-3.49
2023-02-23T22:39:18.791Z,-3.48
2023-02-23T22:41:47.259Z,-3.47
2023-02-23T22:44:19.326Z,-3.46
2023-02-23T22:46:47.977Z,-3.45
2023-02-23T22:49:16.320Z,-3.44
2023-02-23T22:51:44.389Z,-3.44
2023-02-23T22:54:13.925Z,-3.41
2023-02-23T22:56:42.467Z,-3.28
2023-02-23T22:59:11.078Z,-3.16
2023-02-23T23:01:39.361Z,-3.15
2023-02-23T23:04:10.778Z,-3.15
2023-02-23T23:06:40.427Z,-3.17
2023-02-23T23:09:12.011Z,-3.17
2023-02-23T23:11:44.557Z,-3.18
2023-02-23T23:14:19.293Z,-3.19
2023-02-23T23:16:48.436Z,-3.21
2023-02-23T23:19:24.675Z,-3.23
2023-02-23T23:21:56.747Z,-3.24
2023-02-23T23:24:27.437Z,-3.21
2023-02-23T23:26:59.847Z,-3.09
2023-02-23T23:29:29.990Z,-3.05
2023-02-23T23:31:58.226Z,-3.08
2023-02-23T23:34:26.893Z,-3.08
2023-02-23T23:36:57.699Z,-3.10
2023-02-23T23:39:26.498Z,-3.12
2023-02-23T23:41:55.312Z,-3.13
2023-02-23T23:44:29.157Z,-3.14
2023-02-23T23:46:58.311Z,-3.15
2023-02-23T23:49:26.782Z,-3.12
2023-02-23T23:51:57.166Z,-2.98
2023-02-23T23:54:27.165Z,-2.92
2023-02-23T23:56:55.262Z,-2.96
2023-02-23T23:59:24.612Z,-2.98
